sensor_id;sensor_type;location;lat;lon;timestamp;P1;durP1;ratioP1;P2;durP2;ratioP2
37971;SDS011;23794;48.234;8.344;2023-06-19T00:00:30;5.32;;;4.82;;
37971;SDS011;23794;48.234;8.344;2023-06-19T00:03:00;6.40;;;4.55;;
37971;SDS011;23794;48.234;8.344;2023-06-19T00:05:27;6.00;;;4.13;;
37971;SDS011;23794;48.234;8.344;2023-06-19T00:07:54;5.18;;;4.40;;
37971;SDS011;23794;48.234;8.344;2023-06-19T00:10:21;6.00;;;4.72;;
37971;SDS011;23794;48.234;8.344;2023-06-19T00:12:48;4.78;;;4.38;;
37971;SDS011;23794;48.234;8.344;2023-06-19T00:15:15;7.30;;;4.20;;
37971;SDS011;23794;48.234;8.344;2023-06-19T00:17:42;15.82;;;6.32;;
37971;SDS011;23794;48.234;8.344;2023-06-19T00:20:10;6.70;;;4.43;;
37971;SDS011;23794;48.234;8.344;2023-06-19T00:22:37;4.63;;;3.95;;
37971;SDS011;23794;48.234;8.344;2023-06-19T00:25:03;5.10;;;4.30;;
37971;SDS011;23794;48.234;8.344;2023-06-19T00:27:30;6.32;;;4.30;;
37971;SDS011;23794;48.234;8.344;2023-06-19T00:29:57;4.43;;;4.03;;
37971;SDS011;23794;48.234;8.344;2023-06-19T00:32:28;18.58;;;4.97;;
37971;SDS011;23794;48.234;8.344;2023-06-19T00:34:55;9.80;;;4.63;;
37971;SDS011;23794;48.234;8.344;2023-06-19T00:37:24;5.07;;;4.57;;
37971;SDS011;23794;48.234;8.344;2023-06-19T00:39:52;6.75;;;4.40;;
37971;SDS011;23794;48.234;8.344;2023-06-19T00:42:19;7.18;;;4.90;;
37971;SDS011;23794;48.234;8.344;2023-06-19T00:44:46;6.43;;;4.75;;
37971;SDS011;23794;48.234;8.344;2023-06-19T00:47:13;11.27;;;4.45;;
37971;SDS011;23794;48.234;8.344;2023-06-19T00:49:40;5.70;;;4.68;;
37971;SDS011;23794;48.234;8.344;2023-06-19T00:52:07;6.45;;;4.70;;
37971;SDS011;23794;48.234;8.344;2023-06-19T00:54:34;5.95;;;5.25;;
37971;SDS011;23794;48.234;8.344;2023-06-19T00:57:01;5.47;;;4.93;;
37971;SDS011;23794;48.234;8.344;2023-06-19T00:59:29;13.52;;;4.65;;
37971;SDS011;23794;48.234;8.344;2023-06-19T01:01:56;8.82;;;4.50;;
37971;SDS011;23794;48.234;8.344;2023-06-19T01:04:24;6.97;;;4.20;;
37971;SDS011;23794;48.234;8.344;2023-06-19T01:09:25;5.30;;;3.83;;
37971;SDS011;23794;48.234;8.344;2023-06-19T01:12:01;6.20;;;4.32;;
37971;SDS011;23794;48.234;8.344;2023-06-19T01:14:39;5.03;;;4.53;;
37971;SDS011;23794;48.234;8.344;2023-06-19T01:17:15;6.55;;;4.38;;
37971;SDS011;23794;48.234;8.344;2023-06-19T01:19:42;5.65;;;3.70;;
37971;SDS011;23794;48.234;8.344;2023-06-19T01:22:09;6.18;;;3.50;;
37971;SDS011;23794;48.234;8.344;2023-06-19T01:24:36;4.20;;;3.58;;
37971;SDS011;23794;48.234;8.344;2023-06-19T01:27:03;5.40;;;4.00;;
37971;SDS011;23794;48.234;8.344;2023-06-19T01:29:30;4.47;;;3.97;;
37971;SDS011;23794;48.234;8.344;2023-06-19T01:32:04;4.68;;;3.92;;
37971;SDS011;23794;48.234;8.344;2023-06-19T01:34:36;4.20;;;3.40;;
37971;SDS011;23794;48.234;8.344;2023-06-19T01:37:06;33.80;;;5.38;;
37971;SDS011;23794;48.234;8.344;2023-06-19T01:39:36;5.60;;;4.00;;
37971;SDS011;23794;48.234;8.344;2023-06-19T01:42:04;3.97;;;3.45;;
37971;SDS011;23794;48.234;8.344;2023-06-19T01:44:31;3.78;;;3.47;;
37971;SDS011;23794;48.234;8.344;2023-06-19T01:46:59;3.58;;;3.15;;
37971;SDS011;23794;48.234;8.344;2023-06-19T01:49:26;3.90;;;3.60;;
37971;SDS011;23794;48.234;8.344;2023-06-19T01:51:52;4.65;;;3.85;;
37971;SDS011;23794;48.234;8.344;2023-06-19T01:54:19;4.38;;;3.50;;
37971;SDS011;23794;48.234;8.344;2023-06-19T01:56:47;5.07;;;3.55;;
37971;SDS011;23794;48.234;8.344;2023-06-19T01:59:14;3.90;;;3.20;;
37971;SDS011;23794;48.234;8.344;2023-06-19T02:01:40;4.82;;;3.63;;
37971;SDS011;23794;48.234;8.344;2023-06-19T02:04:07;6.32;;;4.03;;
37971;SDS011;23794;48.234;8.344;2023-06-19T02:06:36;5.88;;;3.72;;
37971;SDS011;23794;48.234;8.344;2023-06-19T02:09:03;4.85;;;4.00;;
37971;SDS011;23794;48.234;8.344;2023-06-19T02:11:30;3.60;;;3.17;;
37971;SDS011;23794;48.234;8.344;2023-06-19T02:13:57;3.78;;;3.40;;
37971;SDS011;23794;48.234;8.344;2023-06-19T02:16:23;6.63;;;3.17;;
37971;SDS011;23794;48.234;8.344;2023-06-19T02:18:50;4.78;;;3.33;;
37971;SDS011;23794;48.234;8.344;2023-06-19T02:21:17;3.72;;;3.10;;
37971;SDS011;23794;48.234;8.344;2023-06-19T02:23:44;3.72;;;2.95;;
37971;SDS011;23794;48.234;8.344;2023-06-19T02:26:11;3.53;;;2.90;;
37971;SDS011;23794;48.234;8.344;2023-06-19T02:28:37;2.75;;;2.22;;
37971;SDS011;23794;48.234;8.344;2023-06-19T02:31:04;3.83;;;2.90;;
37971;SDS011;23794;48.234;8.344;2023-06-19T02:33:31;3.25;;;2.95;;
37971;SDS011;23794;48.234;8.344;2023-06-19T02:35:59;4.95;;;2.80;;
37971;SDS011;23794;48.234;8.344;2023-06-19T02:38:26;3.90;;;2.72;;
37971;SDS011;23794;48.234;8.344;2023-06-19T02:40:53;4.53;;;3.08;;
37971;SDS011;23794;48.234;8.344;2023-06-19T02:43:20;2.92;;;2.40;;
37971;SDS011;23794;48.234;8.344;2023-06-19T02:45:47;6.68;;;2.85;;
37971;SDS011;23794;48.234;8.344;2023-06-19T02:48:14;4.07;;;2.88;;
37971;SDS011;23794;48.234;8.344;2023-06-19T02:50:40;3.00;;;2.65;;
37971;SDS011;23794;48.234;8.344;2023-06-19T02:53:07;5.10;;;2.58;;
37971;SDS011;23794;48.234;8.344;2023-06-19T02:55:34;4.63;;;2.40;;
37971;SDS011;23794;48.234;8.344;2023-06-19T02:58:02;2.85;;;2.40;;
37971;SDS011;23794;48.234;8.344;2023-06-19T03:00:29;2.80;;;2.50;;
37971;SDS011;23794;48.234;8.344;2023-06-19T03:02:57;2.63;;;2.22;;
37971;SDS011;23794;48.234;8.344;2023-06-19T03:05:25;6.25;;;2.88;;
37971;SDS011;23794;48.234;8.344;2023-06-19T03:07:54;2.70;;;2.40;;
37971;SDS011;23794;48.234;8.344;2023-06-19T03:10:21;4.18;;;2.70;;
37971;SDS011;23794;48.234;8.344;2023-06-19T03:12:49;4.72;;;3.30;;
37971;SDS011;23794;48.234;8.344;2023-06-19T03:15:16;4.45;;;3.13;;
37971;SDS011;23794;48.234;8.344;2023-06-19T03:17:47;4.03;;;2.78;;
37971;SDS011;23794;48.234;8.344;2023-06-19T03:20:14;5.05;;;2.85;;
37971;SDS011;23794;48.234;8.344;2023-06-19T03:22:48;4.18;;;3.60;;
37971;SDS011;23794;48.234;8.344;2023-06-19T03:25:16;4.00;;;3.17;;
37971;SDS011;23794;48.234;8.344;2023-06-19T03:27:47;6.28;;;3.67;;
37971;SDS011;23794;48.234;8.344;2023-06-19T03:30:14;3.60;;;3.15;;
37971;SDS011;23794;48.234;8.344;2023-06-19T03:32:41;3.67;;;2.75;;
37971;SDS011;23794;48.234;8.344;2023-06-19T03:35:16;4.18;;;3.10;;
37971;SDS011;23794;48.234;8.344;2023-06-19T03:37:43;8.02;;;3.30;;
37971;SDS011;23794;48.234;8.344;2023-06-19T03:40:12;3.92;;;2.92;;
37971;SDS011;23794;48.234;8.344;2023-06-19T03:42:50;3.85;;;2.88;;
37971;SDS011;23794;48.234;8.344;2023-06-19T03:45:18;3.88;;;3.40;;
37971;SDS011;23794;48.234;8.344;2023-06-19T03:47:45;4.43;;;4.03;;
37971;SDS011;23794;48.234;8.344;2023-06-19T03:50:13;6.38;;;4.10;;
37971;SDS011;23794;48.234;8.344;2023-06-19T03:52:47;6.22;;;3.33;;
37971;SDS011;23794;48.234;8.344;2023-06-19T03:55:13;5.57;;;3.92;;
37971;SDS011;23794;48.234;8.344;2023-06-19T03:57:40;4.07;;;3.67;;
37971;SDS011;23794;48.234;8.344;2023-06-19T04:00:07;5.88;;;4.10;;
37971;SDS011;23794;48.234;8.344;2023-06-19T04:02:37;7.70;;;5.15;;
37971;SDS011;23794;48.234;8.344;2023-06-19T04:05:05;6.20;;;4.13;;
37971;SDS011;23794;48.234;8.344;2023-06-19T04:07:32;5.63;;;4.18;;
37971;SDS011;23794;48.234;8.344;2023-06-19T04:09:59;6.07;;;4.38;;
37971;SDS011;23794;48.234;8.344;2023-06-19T04:12:26;3.92;;;3.63;;
37971;SDS011;23794;48.234;8.344;2023-06-19T04:14:52;6.25;;;3.35;;
37971;SDS011;23794;48.234;8.344;2023-06-19T04:17:19;5.03;;;4.10;;
37971;SDS011;23794;48.234;8.344;2023-06-19T04:19:47;6.90;;;4.85;;
37971;SDS011;23794;48.234;8.344;2023-06-19T04:22:14;6.20;;;5.05;;
37971;SDS011;23794;48.234;8.344;2023-06-19T04:24:41;5.85;;;4.45;;
37971;SDS011;23794;48.234;8.344;2023-06-19T04:27:08;5.35;;;4.80;;
37971;SDS011;23794;48.234;8.344;2023-06-19T04:29:35;5.82;;;5.22;;
37971;SDS011;23794;48.234;8.344;2023-06-19T04:32:02;5.65;;;4.95;;
37971;SDS011;23794;48.234;8.344;2023-06-19T04:34:43;6.00;;;5.40;;
37971;SDS011;23794;48.234;8.344;2023-06-19T04:37:12;8.07;;;5.13;;
37971;SDS011;23794;48.234;8.344;2023-06-19T04:39:39;7.80;;;6.30;;
37971;SDS011;23794;48.234;8.344;2023-06-19T04:42:05;6.10;;;5.05;;
37971;SDS011;23794;48.234;8.344;2023-06-19T04:44:32;7.88;;;5.82;;
37971;SDS011;23794;48.234;8.344;2023-06-19T04:47:00;8.25;;;7.43;;
37971;SDS011;23794;48.234;8.344;2023-06-19T04:49:29;9.38;;;7.35;;
37971;SDS011;23794;48.234;8.344;2023-06-19T04:51:57;9.93;;;6.50;;
37971;SDS011;23794;48.234;8.344;2023-06-19T04:54:24;8.48;;;6.75;;
37971;SDS011;23794;48.234;8.344;2023-06-19T04:56:52;10.98;;;6.80;;
37971;SDS011;23794;48.234;8.344;2023-06-19T04:59:19;8.30;;;7.10;;
37971;SDS011;23794;48.234;8.344;2023-06-19T05:01:46;9.68;;;7.35;;
37971;SDS011;23794;48.234;8.344;2023-06-19T05:04:13;9.25;;;7.80;;
37971;SDS011;23794;48.234;8.344;2023-06-19T05:06:40;8.77;;;6.60;;
37971;SDS011;23794;48.234;8.344;2023-06-19T05:09:09;6.57;;;5.72;;
37971;SDS011;23794;48.234;8.344;2023-06-19T05:11:36;8.95;;;6.45;;
37971;SDS011;23794;48.234;8.344;2023-06-19T05:14:03;7.10;;;5.53;;
37971;SDS011;23794;48.234;8.344;2023-06-19T05:16:30;6.78;;;6.03;;
37971;SDS011;23794;48.234;8.344;2023-06-19T05:18:59;6.65;;;6.03;;
37971;SDS011;23794;48.234;8.344;2023-06-19T05:21:26;9.82;;;7.00;;
37971;SDS011;23794;48.234;8.344;2023-06-19T05:23:54;8.02;;;6.38;;
37971;SDS011;23794;48.234;8.344;2023-06-19T05:26:21;5.32;;;4.82;;
37971;SDS011;23794;48.234;8.344;2023-06-19T05:28:49;7.60;;;6.30;;
37971;SDS011;23794;48.234;8.344;2023-06-19T05:31:15;7.13;;;6.43;;
37971;SDS011;23794;48.234;8.344;2023-06-19T05:33:42;6.93;;;5.78;;
37971;SDS011;23794;48.234;8.344;2023-06-19T05:36:10;6.80;;;6.05;;
37971;SDS011;23794;48.234;8.344;2023-06-19T05:38:37;7.00;;;6.15;;
37971;SDS011;23794;48.234;8.344;2023-06-19T05:41:06;7.00;;;6.30;;
37971;SDS011;23794;48.234;8.344;2023-06-19T05:43:33;7.07;;;6.38;;
37971;SDS011;23794;48.234;8.344;2023-06-19T05:46:00;7.35;;;6.35;;
37971;SDS011;23794;48.234;8.344;2023-06-19T05:48:31;5.25;;;3.97;;
37971;SDS011;23794;48.234;8.344;2023-06-19T05:50:58;5.82;;;5.32;;
37971;SDS011;23794;48.234;8.344;2023-06-19T05:53:25;8.43;;;6.70;;
37971;SDS011;23794;48.234;8.344;2023-06-19T05:55:52;7.43;;;6.68;;
37971;SDS011;23794;48.234;8.344;2023-06-19T05:58:18;6.95;;;6.28;;
37971;SDS011;23794;48.234;8.344;2023-06-19T06:00:48;6.65;;;5.97;;
37971;SDS011;23794;48.234;8.344;2023-06-19T06:03:15;7.22;;;6.55;;
37971;SDS011;23794;48.234;8.344;2023-06-19T06:05:42;6.10;;;5.50;;
37971;SDS011;23794;48.234;8.344;2023-06-19T06:08:09;8.10;;;7.28;;
37971;SDS011;23794;48.234;8.344;2023-06-19T06:10:36;8.07;;;6.05;;
37971;SDS011;23794;48.234;8.344;2023-06-19T06:13:03;7.13;;;6.43;;
37971;SDS011;23794;48.234;8.344;2023-06-19T06:15:30;6.18;;;5.55;;
37971;SDS011;23794;48.234;8.344;2023-06-19T06:17:57;7.55;;;6.85;;
37971;SDS011;23794;48.234;8.344;2023-06-19T06:20:24;19.17;;;7.60;;
37971;SDS011;23794;48.234;8.344;2023-06-19T06:22:52;7.40;;;6.40;;
37971;SDS011;23794;48.234;8.344;2023-06-19T06:25:19;6.32;;;5.72;;
37971;SDS011;23794;48.234;8.344;2023-06-19T06:27:46;6.50;;;5.90;;
37971;SDS011;23794;48.234;8.344;2023-06-19T06:30:13;6.60;;;6.00;;
37971;SDS011;23794;48.234;8.344;2023-06-19T06:32:43;6.45;;;5.85;;
37971;SDS011;23794;48.234;8.344;2023-06-19T06:35:10;4.97;;;4.47;;
37971;SDS011;23794;48.234;8.344;2023-06-19T06:37:36;6.55;;;4.95;;
37971;SDS011;23794;48.234;8.344;2023-06-19T06:40:04;6.72;;;5.45;;
37971;SDS011;23794;48.234;8.344;2023-06-19T06:42:35;8.32;;;5.45;;
37971;SDS011;23794;48.234;8.344;2023-06-19T06:45:05;5.47;;;4.97;;
37971;SDS011;23794;48.234;8.344;2023-06-19T06:47:36;5.40;;;4.50;;
37971;SDS011;23794;48.234;8.344;2023-06-19T06:50:04;6.63;;;4.90;;
37971;SDS011;23794;48.234;8.344;2023-06-19T06:52:31;4.93;;;4.43;;
37971;SDS011;23794;48.234;8.344;2023-06-19T06:54:58;3.85;;;3.55;;
37971;SDS011;23794;48.234;8.344;2023-06-19T06:57:25;4.40;;;4.00;;
37971;SDS011;23794;48.234;8.344;2023-06-19T06:59:52;3.42;;;3.13;;
37971;SDS011;23794;48.234;8.344;2023-06-19T07:02:19;3.13;;;2.88;;
37971;SDS011;23794;48.234;8.344;2023-06-19T07:04:46;3.90;;;3.40;;
37971;SDS011;23794;48.234;8.344;2023-06-19T07:07:12;4.30;;;3.90;;
37971;SDS011;23794;48.234;8.344;2023-06-19T07:09:39;5.10;;;4.30;;
37971;SDS011;23794;48.234;8.344;2023-06-19T07:12:06;4.40;;;4.00;;
37971;SDS011;23794;48.234;8.344;2023-06-19T07:14:33;4.10;;;3.70;;
37971;SDS011;23794;48.234;8.344;2023-06-19T07:17:00;4.28;;;2.92;;
37971;SDS011;23794;48.234;8.344;2023-06-19T07:19:27;3.78;;;2.95;;
37971;SDS011;23794;48.234;8.344;2023-06-19T07:21:54;3.53;;;2.72;;
37971;SDS011;23794;48.234;8.344;2023-06-19T07:24:21;3.17;;;2.35;;
37971;SDS011;23794;48.234;8.344;2023-06-19T07:26:48;3.67;;;2.65;;
37971;SDS011;23794;48.234;8.344;2023-06-19T07:29:14;4.50;;;2.03;;
37971;SDS011;23794;48.234;8.344;2023-06-19T07:31:41;2.25;;;1.77;;
37971;SDS011;23794;48.234;8.344;2023-06-19T07:34:11;1.90;;;1.50;;
37971;SDS011;23794;48.234;8.344;2023-06-19T07:36:38;1.83;;;1.55;;
37971;SDS011;23794;48.234;8.344;2023-06-19T07:39:05;1.40;;;1.30;;
37971;SDS011;23794;48.234;8.344;2023-06-19T07:41:31;2.75;;;1.50;;
37971;SDS011;23794;48.234;8.344;2023-06-19T07:43:58;2.00;;;1.52;;
37971;SDS011;23794;48.234;8.344;2023-06-19T07:46:25;1.55;;;1.45;;
37971;SDS011;23794;48.234;8.344;2023-06-19T07:48:52;1.67;;;1.48;;
37971;SDS011;23794;48.234;8.344;2023-06-19T07:51:18;1.75;;;1.65;;
37971;SDS011;23794;48.234;8.344;2023-06-19T07:53:45;2.30;;;1.67;;
37971;SDS011;23794;48.234;8.344;2023-06-19T07:56:12;2.83;;;2.22;;
37971;SDS011;23794;48.234;8.344;2023-06-19T07:58:39;2.45;;;1.90;;
37971;SDS011;23794;48.234;8.344;2023-06-19T08:01:06;2.65;;;2.10;;
37971;SDS011;23794;48.234;8.344;2023-06-19T08:03:33;2.78;;;2.17;;
37971;SDS011;23794;48.234;8.344;2023-06-19T08:05:59;3.55;;;1.70;;
37971;SDS011;23794;48.234;8.344;2023-06-19T08:08:26;2.25;;;2.05;;
37971;SDS011;23794;48.234;8.344;2023-06-19T08:10:53;1.88;;;1.73;;
37971;SDS011;23794;48.234;8.344;2023-06-19T08:13:20;2.50;;;2.17;;
37971;SDS011;23794;48.234;8.344;2023-06-19T08:15:47;4.95;;;2.22;;
37971;SDS011;23794;48.234;8.344;2023-06-19T08:18:13;2.53;;;2.22;;
37971;SDS011;23794;48.234;8.344;2023-06-19T08:20:40;6.88;;;2.90;;
37971;SDS011;23794;48.234;8.344;2023-06-19T08:23:07;6.88;;;2.58;;
37971;SDS011;23794;48.234;8.344;2023-06-19T08:25:34;3.20;;;2.60;;
37971;SDS011;23794;48.234;8.344;2023-06-19T08:28:01;4.40;;;2.80;;
37971;SDS011;23794;48.234;8.344;2023-06-19T08:30:28;3.63;;;2.55;;
37971;SDS011;23794;48.234;8.344;2023-06-19T08:32:55;5.70;;;2.88;;
37971;SDS011;23794;48.234;8.344;2023-06-19T08:35:22;2.90;;;2.60;;
37971;SDS011;23794;48.234;8.344;2023-06-19T08:37:49;4.70;;;2.83;;
37971;SDS011;23794;48.234;8.344;2023-06-19T08:40:16;5.90;;;2.80;;
37971;SDS011;23794;48.234;8.344;2023-06-19T08:42:42;3.00;;;2.42;;
37971;SDS011;23794;48.234;8.344;2023-06-19T08:45:10;2.45;;;2.25;;
37971;SDS011;23794;48.234;8.344;2023-06-19T08:47:40;3.60;;;2.80;;
37971;SDS011;23794;48.234;8.344;2023-06-19T08:50:07;3.28;;;2.70;;
37971;SDS011;23794;48.234;8.344;2023-06-19T08:52:34;3.08;;;2.80;;
37971;SDS011;23794;48.234;8.344;2023-06-19T08:55:02;6.63;;;3.10;;
37971;SDS011;23794;48.234;8.344;2023-06-19T08:57:37;3.15;;;2.85;;
37971;SDS011;23794;48.234;8.344;2023-06-19T09:00:07;3.13;;;2.65;;
37971;SDS011;23794;48.234;8.344;2023-06-19T09:02:40;5.15;;;3.00;;
37971;SDS011;23794;48.234;8.344;2023-06-19T09:05:10;3.20;;;2.90;;
37971;SDS011;23794;48.234;8.344;2023-06-19T09:07:41;4.68;;;2.95;;
37971;SDS011;23794;48.234;8.344;2023-06-19T09:10:15;7.13;;;3.13;;
37971;SDS011;23794;48.234;8.344;2023-06-19T09:13:01;3.00;;;2.65;;
37971;SDS011;23794;48.234;8.344;2023-06-19T09:15:31;4.28;;;3.20;;
37971;SDS011;23794;48.234;8.344;2023-06-19T09:20:33;3.75;;;3.25;;
37971;SDS011;23794;48.234;8.344;2023-06-19T09:23:01;3.50;;;3.20;;
37971;SDS011;23794;48.234;8.344;2023-06-19T09:25:28;6.20;;;3.50;;
37971;SDS011;23794;48.234;8.344;2023-06-19T09:27:55;3.67;;;3.00;;
37971;SDS011;23794;48.234;8.344;2023-06-19T09:30:22;4.03;;;3.08;;
37971;SDS011;23794;48.234;8.344;2023-06-19T09:32:51;5.05;;;2.97;;
37971;SDS011;23794;48.234;8.344;2023-06-19T09:35:18;3.67;;;3.00;;
37971;SDS011;23794;48.234;8.344;2023-06-19T09:37:45;4.38;;;3.13;;
37971;SDS011;23794;48.234;8.344;2023-06-19T09:40:13;3.38;;;3.08;;
37971;SDS011;23794;48.234;8.344;2023-06-19T09:42:41;4.25;;;3.13;;
37971;SDS011;23794;48.234;8.344;2023-06-19T09:45:21;3.65;;;2.95;;
37971;SDS011;23794;48.234;8.344;2023-06-19T09:47:51;3.42;;;2.92;;
37971;SDS011;23794;48.234;8.344;2023-06-19T09:50:28;3.75;;;3.35;;
37971;SDS011;23794;48.234;8.344;2023-06-19T09:52:55;3.00;;;2.70;;
37971;SDS011;23794;48.234;8.344;2023-06-19T09:55:23;4.57;;;2.95;;
37971;SDS011;23794;48.234;8.344;2023-06-19T09:57:51;3.25;;;2.95;;
37971;SDS011;23794;48.234;8.344;2023-06-19T10:00:20;3.75;;;2.90;;
37971;SDS011;23794;48.234;8.344;2023-06-19T10:02:52;3.17;;;2.88;;
37971;SDS011;23794;48.234;8.344;2023-06-19T10:05:30;4.50;;;3.20;;
37971;SDS011;23794;48.234;8.344;2023-06-19T10:07:57;4.03;;;3.20;;
37971;SDS011;23794;48.234;8.344;2023-06-19T10:10:27;3.17;;;2.55;;
37971;SDS011;23794;48.234;8.344;2023-06-19T10:12:58;5.43;;;3.83;;
37971;SDS011;23794;48.234;8.344;2023-06-19T10:15:26;3.17;;;2.80;;
37971;SDS011;23794;48.234;8.344;2023-06-19T10:18:02;9.27;;;3.83;;
37971;SDS011;23794;48.234;8.344;2023-06-19T10:20:31;5.47;;;3.45;;
37971;SDS011;23794;48.234;8.344;2023-06-19T10:25:31;5.55;;;3.40;;
37971;SDS011;23794;48.234;8.344;2023-06-19T10:28:00;3.47;;;3.17;;
37971;SDS011;23794;48.234;8.344;2023-06-19T10:30:28;5.18;;;3.25;;
37971;SDS011;23794;48.234;8.344;2023-06-19T10:32:56;4.00;;;3.00;;
37971;SDS011;23794;48.234;8.344;2023-06-19T10:35:26;3.38;;;3.08;;
37971;SDS011;23794;48.234;8.344;2023-06-19T10:37:53;3.50;;;2.88;;
37971;SDS011;23794;48.234;8.344;2023-06-19T10:40:21;4.72;;;2.80;;
37971;SDS011;23794;48.234;8.344;2023-06-19T10:42:48;3.53;;;3.22;;
37971;SDS011;23794;48.234;8.344;2023-06-19T10:45:15;7.45;;;3.67;;
37971;SDS011;23794;48.234;8.344;2023-06-19T10:47:48;3.55;;;2.83;;
37971;SDS011;23794;48.234;8.344;2023-06-19T10:50:17;5.18;;;2.65;;
37971;SDS011;23794;48.234;8.344;2023-06-19T10:52:45;4.35;;;3.25;;
37971;SDS011;23794;48.234;8.344;2023-06-19T10:55:14;2.47;;;2.28;;
37971;SDS011;23794;48.234;8.344;2023-06-19T10:57:45;3.22;;;2.50;;
37971;SDS011;23794;48.234;8.344;2023-06-19T11:00:29;3.05;;;2.85;;
37971;SDS011;23794;48.234;8.344;2023-06-19T11:02:57;3.30;;;2.92;;
37971;SDS011;23794;48.234;8.344;2023-06-19T11:05:25;9.50;;;2.97;;
37971;SDS011;23794;48.234;8.344;2023-06-19T11:07:58;10.95;;;3.17;;
37971;SDS011;23794;48.234;8.344;2023-06-19T11:10:27;4.70;;;2.75;;
37971;SDS011;23794;48.234;8.344;2023-06-19T11:12:56;3.97;;;2.90;;
37971;SDS011;23794;48.234;8.344;2023-06-19T11:15:31;4.70;;;3.17;;
37971;SDS011;23794;48.234;8.344;2023-06-19T11:18:01;7.03;;;3.40;;
37971;SDS011;23794;48.234;8.344;2023-06-19T11:20:29;4.43;;;3.00;;
37971;SDS011;23794;48.234;8.344;2023-06-19T11:22:57;5.05;;;3.33;;
37971;SDS011;23794;48.234;8.344;2023-06-19T11:25:35;7.68;;;3.72;;
37971;SDS011;23794;48.234;8.344;2023-06-19T11:28:05;3.63;;;3.33;;
37971;SDS011;23794;48.234;8.344;2023-06-19T11:30:37;4.30;;;2.72;;
37971;SDS011;23794;48.234;8.344;2023-06-19T11:33:14;3.30;;;3.00;;
37971;SDS011;23794;48.234;8.344;2023-06-19T11:35:47;3.38;;;3.08;;
37971;SDS011;23794;48.234;8.344;2023-06-19T11:38:24;3.65;;;2.65;;
37971;SDS011;23794;48.234;8.344;2023-06-19T11:40:54;4.45;;;3.13;;
37971;SDS011;23794;48.234;8.344;2023-06-19T11:43:23;7.33;;;4.33;;
37971;SDS011;23794;48.234;8.344;2023-06-19T11:45:53;3.30;;;3.00;;
37971;SDS011;23794;48.234;8.344;2023-06-19T11:48:26;3.92;;;3.33;;
37971;SDS011;23794;48.234;8.344;2023-06-19T11:50:54;4.55;;;3.00;;
37971;SDS011;23794;48.234;8.344;2023-06-19T11:53:22;3.63;;;3.08;;
37971;SDS011;23794;48.234;8.344;2023-06-19T11:55:50;4.07;;;3.00;;
37971;SDS011;23794;48.234;8.344;2023-06-19T11:58:18;4.68;;;3.38;;
37971;SDS011;23794;48.234;8.344;2023-06-19T12:00:48;4.20;;;3.45;;
37971;SDS011;23794;48.234;8.344;2023-06-19T12:03:15;5.18;;;3.20;;
37971;SDS011;23794;48.234;8.344;2023-06-19T12:05:43;3.35;;;3.05;;
37971;SDS011;23794;48.234;8.344;2023-06-19T12:08:10;10.35;;;3.70;;
37971;SDS011;23794;48.234;8.344;2023-06-19T12:10:38;4.68;;;3.13;;
37971;SDS011;23794;48.234;8.344;2023-06-19T12:13:05;3.97;;;3.00;;
37971;SDS011;23794;48.234;8.344;2023-06-19T12:15:31;3.63;;;3.33;;
37971;SDS011;23794;48.234;8.344;2023-06-19T12:18:02;4.53;;;3.30;;
37971;SDS011;23794;48.234;8.344;2023-06-19T12:20:30;3.78;;;3.22;;
37971;SDS011;23794;48.234;8.344;2023-06-19T12:22:57;4.57;;;3.50;;
37971;SDS011;23794;48.234;8.344;2023-06-19T12:25:24;3.70;;;3.40;;
37971;SDS011;23794;48.234;8.344;2023-06-19T12:27:51;4.10;;;3.70;;
37971;SDS011;23794;48.234;8.344;2023-06-19T12:30:21;4.07;;;3.67;;
37971;SDS011;23794;48.234;8.344;2023-06-19T12:32:49;4.13;;;3.70;;
37971;SDS011;23794;48.234;8.344;2023-06-19T12:35:17;3.90;;;3.60;;
37971;SDS011;23794;48.234;8.344;2023-06-19T12:37:45;3.42;;;3.13;;
37971;SDS011;23794;48.234;8.344;2023-06-19T12:40:12;4.03;;;3.63;;
37971;SDS011;23794;48.234;8.344;2023-06-19T12:42:39;5.63;;;3.30;;
37971;SDS011;23794;48.234;8.344;2023-06-19T12:45:06;3.95;;;3.30;;
37971;SDS011;23794;48.234;8.344;2023-06-19T12:47:33;3.90;;;3.60;;
37971;SDS011;23794;48.234;8.344;2023-06-19T12:50:00;4.65;;;3.40;;
37971;SDS011;23794;48.234;8.344;2023-06-19T12:52:27;4.20;;;3.40;;
37971;SDS011;23794;48.234;8.344;2023-06-19T12:54:54;4.28;;;3.88;;
37971;SDS011;23794;48.234;8.344;2023-06-19T12:57:21;4.20;;;3.45;;
37971;SDS011;23794;48.234;8.344;2023-06-19T12:59:48;4.20;;;3.83;;
37971;SDS011;23794;48.234;8.344;2023-06-19T13:02:15;7.22;;;3.83;;
37971;SDS011;23794;48.234;8.344;2023-06-19T13:04:42;3.70;;;3.40;;
37971;SDS011;23794;48.234;8.344;2023-06-19T13:07:09;9.75;;;4.18;;
37971;SDS011;23794;48.234;8.344;2023-06-19T13:09:39;5.38;;;3.88;;
37971;SDS011;23794;48.234;8.344;2023-06-19T13:12:06;4.63;;;4.13;;
37971;SDS011;23794;48.234;8.344;2023-06-19T13:14:33;7.57;;;3.75;;
37971;SDS011;23794;48.234;8.344;2023-06-19T13:17:00;5.65;;;3.78;;
37971;SDS011;23794;48.234;8.344;2023-06-19T13:19:28;9.80;;;4.05;;
37971;SDS011;23794;48.234;8.344;2023-06-19T13:21:55;4.32;;;3.83;;
37971;SDS011;23794;48.234;8.344;2023-06-19T13:24:22;8.57;;;3.75;;
37971;SDS011;23794;48.234;8.344;2023-06-19T13:26:48;4.63;;;4.13;;
37971;SDS011;23794;48.234;8.344;2023-06-19T13:29:16;4.45;;;4.05;;
37971;SDS011;23794;48.234;8.344;2023-06-19T13:31:42;4.75;;;3.83;;
37971;SDS011;23794;48.234;8.344;2023-06-19T13:34:09;8.63;;;4.10;;
37971;SDS011;23794;48.234;8.344;2023-06-19T13:36:36;7.03;;;3.50;;
37971;SDS011;23794;48.234;8.344;2023-06-19T13:39:03;4.43;;;3.83;;
37971;SDS011;23794;48.234;8.344;2023-06-19T13:41:31;3.88;;;3.38;;
37971;SDS011;23794;48.234;8.344;2023-06-19T13:43:59;5.95;;;3.70;;
37971;SDS011;23794;48.234;8.344;2023-06-19T13:46:27;5.05;;;3.60;;
37971;SDS011;23794;48.234;8.344;2023-06-19T13:48:54;9.75;;;4.20;;
37971;SDS011;23794;48.234;8.344;2023-06-19T13:51:22;5.97;;;3.95;;
37971;SDS011;23794;48.234;8.344;2023-06-19T13:53:51;4.47;;;4.07;;
37971;SDS011;23794;48.234;8.344;2023-06-19T13:56:19;4.95;;;3.67;;
37971;SDS011;23794;48.234;8.344;2023-06-19T13:58:46;4.15;;;3.75;;
37971;SDS011;23794;48.234;8.344;2023-06-19T14:01:13;6.03;;;4.05;;
37971;SDS011;23794;48.234;8.344;2023-06-19T14:03:40;14.85;;;4.82;;
37971;SDS011;23794;48.234;8.344;2023-06-19T14:06:07;5.65;;;4.10;;
37971;SDS011;23794;48.234;8.344;2023-06-19T14:08:34;4.70;;;4.30;;
37971;SDS011;23794;48.234;8.344;2023-06-19T14:11:01;4.53;;;4.13;;
37971;SDS011;23794;48.234;8.344;2023-06-19T14:13:29;5.07;;;3.88;;
37971;SDS011;23794;48.234;8.344;2023-06-19T14:15:56;10.80;;;4.03;;
37971;SDS011;23794;48.234;8.344;2023-06-19T14:18:23;9.20;;;4.30;;
37971;SDS011;23794;48.234;8.344;2023-06-19T14:20:50;5.25;;;3.90;;
37971;SDS011;23794;48.234;8.344;2023-06-19T14:23:17;4.05;;;3.70;;
37971;SDS011;23794;48.234;8.344;2023-06-19T14:25:44;7.45;;;4.40;;
37971;SDS011;23794;48.234;8.344;2023-06-19T14:28:11;4.00;;;3.60;;
37971;SDS011;23794;48.234;8.344;2023-06-19T14:30:40;7.22;;;4.55;;
37971;SDS011;23794;48.234;8.344;2023-06-19T14:33:07;5.75;;;4.97;;
37971;SDS011;23794;48.234;8.344;2023-06-19T14:35:42;4.68;;;4.28;;
37971;SDS011;23794;48.234;8.344;2023-06-19T14:38:14;13.70;;;5.00;;
37971;SDS011;23794;48.234;8.344;2023-06-19T14:40:41;5.60;;;4.35;;
37971;SDS011;23794;48.234;8.344;2023-06-19T14:43:10;5.32;;;4.60;;
37971;SDS011;23794;48.234;8.344;2023-06-19T14:45:36;4.88;;;4.10;;
37971;SDS011;23794;48.234;8.344;2023-06-19T14:48:06;6.75;;;4.75;;
37971;SDS011;23794;48.234;8.344;2023-06-19T14:50:33;4.22;;;3.85;;
37971;SDS011;23794;48.234;8.344;2023-06-19T14:53:01;9.68;;;4.65;;
37971;SDS011;23794;48.234;8.344;2023-06-19T14:55:28;4.70;;;4.10;;
37971;SDS011;23794;48.234;8.344;2023-06-19T14:57:55;4.30;;;3.90;;
37971;SDS011;23794;48.234;8.344;2023-06-19T15:00:22;4.28;;;3.88;;